sensor_id;sensor_type;location;lat;lon;timestamp;P1;durP1;ratioP1;P2;durP2;ratioP2
3343;SDS011;1685;53.104;8.228;2023-05-15T00:00:14;10.00;;;8.97;;
3343;SDS011;1685;53.104;8.228;2023-05-15T00:02:42;10.20;;;9.20;;
3343;SDS011;1685;53.104;8.228;2023-05-15T00:05:09;9.77;;;8.80;;
3343;SDS011;1685;53.104;8.228;2023-05-15T00:07:37;10.47;;;9.47;;
3343;SDS011;1685;53.104;8.228;2023-05-15T00:10:07;10.67;;;9.07;;
3343;SDS011;1685;53.104;8.228;2023-05-15T00:12:33;10.03;;;9.10;;
3343;SDS011;1685;53.104;8.228;2023-05-15T00:15:01;11.00;;;9.60;;
3343;SDS011;1685;53.104;8.228;2023-05-15T00:17:28;12.43;;;9.00;;
3343;SDS011;1685;53.104;8.228;2023-05-15T00:19:55;11.43;;;10.00;;
3343;SDS011;1685;53.104;8.228;2023-05-15T00:22:23;11.30;;;10.00;;
3343;SDS011;1685;53.104;8.228;2023-05-15T00:24:51;12.13;;;10.10;;
3343;SDS011;1685;53.104;8.228;2023-05-15T00:27:19;11.40;;;10.10;;
3343;SDS011;1685;53.104;8.228;2023-05-15T00:29:46;11.20;;;10.07;;
3343;SDS011;1685;53.104;8.228;2023-05-15T00:32:13;12.60;;;9.93;;
3343;SDS011;1685;53.104;8.228;2023-05-15T00:34:40;12.07;;;10.83;;
3343;SDS011;1685;53.104;8.228;2023-05-15T00:37:07;13.90;;;12.50;;
3343;SDS011;1685;53.104;8.228;2023-05-15T00:39:34;13.57;;;11.20;;
3343;SDS011;1685;53.104;8.228;2023-05-15T00:42:02;13.73;;;12.23;;
3343;SDS011;1685;53.104;8.228;2023-05-15T00:44:31;15.57;;;12.27;;
3343;SDS011;1685;53.104;8.228;2023-05-15T00:46:58;24.30;;;11.60;;
3343;SDS011;1685;53.104;8.228;2023-05-15T00:49:28;15.73;;;13.57;;
3343;SDS011;1685;53.104;8.228;2023-05-15T00:51:55;14.57;;;12.97;;
3343;SDS011;1685;53.104;8.228;2023-05-15T00:54:23;14.33;;;12.93;;
3343;SDS011;1685;53.104;8.228;2023-05-15T00:56:50;16.17;;;14.47;;
3343;SDS011;1685;53.104;8.228;2023-05-15T00:59:21;16.30;;;14.60;;
3343;SDS011;1685;53.104;8.228;2023-05-15T01:01:50;18.83;;;16.83;;
3343;SDS011;1685;53.104;8.228;2023-05-15T01:04:16;22.10;;;16.70;;
3343;SDS011;1685;53.104;8.228;2023-05-15T01:06:44;16.87;;;15.03;;
3343;SDS011;1685;53.104;8.228;2023-05-15T01:09:12;19.40;;;17.30;;
3343;SDS011;1685;53.104;8.228;2023-05-15T01:11:40;19.90;;;17.30;;
3343;SDS011;1685;53.104;8.228;2023-05-15T01:14:07;20.10;;;16.40;;
3343;SDS011;1685;53.104;8.228;2023-05-15T01:16:34;21.23;;;16.60;;
3343;SDS011;1685;53.104;8.228;2023-05-15T01:19:04;18.97;;;16.97;;
3343;SDS011;1685;53.104;8.228;2023-05-15T01:21:37;22.03;;;18.20;;
3343;SDS011;1685;53.104;8.228;2023-05-15T01:24:25;18.97;;;16.73;;
3343;SDS011;1685;53.104;8.228;2023-05-15T01:27:09;24.40;;;17.47;;
3343;SDS011;1685;53.104;8.228;2023-05-15T01:29:43;23.00;;;19.33;;
3343;SDS011;1685;53.104;8.228;2023-05-15T01:32:19;28.03;;;19.27;;
3343;SDS011;1685;53.104;8.228;2023-05-15T01:34:56;18.97;;;16.97;;
3343;SDS011;1685;53.104;8.228;2023-05-15T01:37:27;19.90;;;17.50;;
3343;SDS011;1685;53.104;8.228;2023-05-15T01:39:58;19.47;;;17.27;;
3343;SDS011;1685;53.104;8.228;2023-05-15T01:42:32;24.30;;;18.83;;
3343;SDS011;1685;53.104;8.228;2023-05-15T01:45:00;22.73;;;18.40;;
3343;SDS011;1685;53.104;8.228;2023-05-15T01:47:30;19.90;;;17.80;;
3343;SDS011;1685;53.104;8.228;2023-05-15T01:50:03;20.73;;;17.77;;
3343;SDS011;1685;53.104;8.228;2023-05-15T01:52:33;21.27;;;18.23;;
3343;SDS011;1685;53.104;8.228;2023-05-15T01:55:00;21.17;;;18.10;;
3343;SDS011;1685;53.104;8.228;2023-05-15T01:57:28;27.30;;;18.93;;
3343;SDS011;1685;53.104;8.228;2023-05-15T01:59:58;20.77;;;18.27;;
3343;SDS011;1685;53.104;8.228;2023-05-15T02:02:26;23.03;;;18.57;;
3343;SDS011;1685;53.104;8.228;2023-05-15T02:04:54;22.40;;;18.60;;
3343;SDS011;1685;53.104;8.228;2023-05-15T02:07:21;21.37;;;18.40;;
3343;SDS011;1685;53.104;8.228;2023-05-15T02:09:49;25.30;;;20.30;;
3343;SDS011;1685;53.104;8.228;2023-05-15T02:12:17;24.30;;;20.03;;
3343;SDS011;1685;53.104;8.228;2023-05-15T02:14:47;26.43;;;21.43;;
3343;SDS011;1685;53.104;8.228;2023-05-15T02:17:15;26.13;;;21.27;;
3343;SDS011;1685;53.104;8.228;2023-05-15T02:19:42;25.93;;;19.97;;
3343;SDS011;1685;53.104;8.228;2023-05-15T02:22:09;22.50;;;19.67;;
3343;SDS011;1685;53.104;8.228;2023-05-15T02:24:36;29.70;;;21.13;;
3343;SDS011;1685;53.104;8.228;2023-05-15T02:27:07;29.10;;;24.43;;
3343;SDS011;1685;53.104;8.228;2023-05-15T02:29:40;31.10;;;24.63;;
3343;SDS011;1685;53.104;8.228;2023-05-15T02:32:15;35.40;;;25.67;;
3343;SDS011;1685;53.104;8.228;2023-05-15T02:34:49;31.07;;;23.80;;
3343;SDS011;1685;53.104;8.228;2023-05-15T02:37:22;35.73;;;26.07;;
3343;SDS011;1685;53.104;8.228;2023-05-15T02:39:52;32.00;;;24.33;;
3343;SDS011;1685;53.104;8.228;2023-05-15T02:42:22;27.33;;;21.77;;
3343;SDS011;1685;53.104;8.228;2023-05-15T02:44:49;30.53;;;25.07;;
3343;SDS011;1685;53.104;8.228;2023-05-15T02:47:20;35.10;;;24.00;;
3343;SDS011;1685;53.104;8.228;2023-05-15T02:49:48;33.17;;;25.23;;
3343;SDS011;1685;53.104;8.228;2023-05-15T02:52:15;31.00;;;24.40;;
3343;SDS011;1685;53.104;8.228;2023-05-15T02:54:42;35.27;;;26.13;;
3343;SDS011;1685;53.104;8.228;2023-05-15T02:57:09;37.20;;;25.13;;
3343;SDS011;1685;53.104;8.228;2023-05-15T02:59:36;34.77;;;25.90;;
3343;SDS011;1685;53.104;8.228;2023-05-15T03:02:03;29.50;;;24.07;;
3343;SDS011;1685;53.104;8.228;2023-05-15T03:04:32;35.70;;;26.80;;
3343;SDS011;1685;53.104;8.228;2023-05-15T03:06:59;38.47;;;29.30;;
3343;SDS011;1685;53.104;8.228;2023-05-15T03:09:26;35.23;;;28.17;;
3343;SDS011;1685;53.104;8.228;2023-05-15T03:11:53;40.23;;;29.83;;
3343;SDS011;1685;53.104;8.228;2023-05-15T03:14:20;44.93;;;32.50;;
3343;SDS011;1685;53.104;8.228;2023-05-15T03:16:47;47.87;;;32.37;;
3343;SDS011;1685;53.104;8.228;2023-05-15T03:19:14;53.97;;;37.00;;
3343;SDS011;1685;53.104;8.228;2023-05-15T03:21:43;48.23;;;34.73;;
3343;SDS011;1685;53.104;8.228;2023-05-15T03:24:09;52.97;;;36.07;;
3343;SDS011;1685;53.104;8.228;2023-05-15T03:26:36;58.47;;;36.27;;
3343;SDS011;1685;53.104;8.228;2023-05-15T03:29:04;51.83;;;33.97;;
3343;SDS011;1685;53.104;8.228;2023-05-15T03:31:31;54.77;;;36.20;;
3343;SDS011;1685;53.104;8.228;2023-05-15T03:33:58;54.30;;;36.23;;
3343;SDS011;1685;53.104;8.228;2023-05-15T03:36:25;53.73;;;36.57;;
3343;SDS011;1685;53.104;8.228;2023-05-15T03:38:54;56.33;;;39.00;;
3343;SDS011;1685;53.104;8.228;2023-05-15T03:41:20;51.77;;;35.83;;
3343;SDS011;1685;53.104;8.228;2023-05-15T03:43:48;51.93;;;36.80;;
3343;SDS011;1685;53.104;8.228;2023-05-15T03:46:15;52.53;;;36.10;;
3343;SDS011;1685;53.104;8.228;2023-05-15T03:48:42;56.10;;;39.73;;
3343;SDS011;1685;53.104;8.228;2023-05-15T03:51:09;55.47;;;37.83;;
3343;SDS011;1685;53.104;8.228;2023-05-15T03:53:36;62.57;;;38.10;;
3343;SDS011;1685;53.104;8.228;2023-05-15T03:56:05;56.50;;;37.87;;
3343;SDS011;1685;53.104;8.228;2023-05-15T03:58:32;60.43;;;39.13;;
3343;SDS011;1685;53.104;8.228;2023-05-15T04:00:59;59.50;;;39.20;;
3343;SDS011;1685;53.104;8.228;2023-05-15T04:03:26;58.70;;;39.53;;
3343;SDS011;1685;53.104;8.228;2023-05-15T04:05:53;64.30;;;40.90;;
3343;SDS011;1685;53.104;8.228;2023-05-15T04:08:20;65.07;;;42.90;;
3343;SDS011;1685;53.104;8.228;2023-05-15T04:10:47;68.13;;;43.63;;
3343;SDS011;1685;53.104;8.228;2023-05-15T04:13:16;69.03;;;42.50;;
3343;SDS011;1685;53.104;8.228;2023-05-15T04:15:43;66.77;;;41.47;;
3343;SDS011;1685;53.104;8.228;2023-05-15T04:18:10;72.23;;;46.03;;
3343;SDS011;1685;53.104;8.228;2023-05-15T04:20:37;63.30;;;41.13;;
3343;SDS011;1685;53.104;8.228;2023-05-15T04:23:04;69.97;;;42.80;;
3343;SDS011;1685;53.104;8.228;2023-05-15T04:25:32;70.73;;;44.00;;
3343;SDS011;1685;53.104;8.228;2023-05-15T04:27:59;65.87;;;43.17;;
3343;SDS011;1685;53.104;8.228;2023-05-15T04:30:27;71.27;;;45.10;;
3343;SDS011;1685;53.104;8.228;2023-05-15T04:32:54;72.00;;;43.97;;
3343;SDS011;1685;53.104;8.228;2023-05-15T04:35:21;84.37;;;44.27;;
3343;SDS011;1685;53.104;8.228;2023-05-15T04:37:49;69.03;;;43.83;;
3343;SDS011;1685;53.104;8.228;2023-05-15T04:40:16;72.13;;;45.47;;
3343;SDS011;1685;53.104;8.228;2023-05-15T04:42:43;71.83;;;46.80;;
3343;SDS011;1685;53.104;8.228;2023-05-15T04:45:10;73.67;;;47.13;;
3343;SDS011;1685;53.104;8.228;2023-05-15T04:47:38;73.60;;;45.53;;
3343;SDS011;1685;53.104;8.228;2023-05-15T04:50:06;75.43;;;46.63;;
3343;SDS011;1685;53.104;8.228;2023-05-15T04:52:33;76.00;;;45.77;;
3343;SDS011;1685;53.104;8.228;2023-05-15T04:55:00;67.80;;;43.77;;
3343;SDS011;1685;53.104;8.228;2023-05-15T04:57:28;70.87;;;46.57;;
3343;SDS011;1685;53.104;8.228;2023-05-15T04:59:55;73.00;;;46.17;;
3343;SDS011;1685;53.104;8.228;2023-05-15T05:02:23;67.63;;;42.93;;
3343;SDS011;1685;53.104;8.228;2023-05-15T05:04:51;71.23;;;44.57;;
3343;SDS011;1685;53.104;8.228;2023-05-15T05:07:18;70.63;;;42.00;;
3343;SDS011;1685;53.104;8.228;2023-05-15T05:09:45;67.80;;;44.10;;
3343;SDS011;1685;53.104;8.228;2023-05-15T05:12:12;67.70;;;42.23;;
3343;SDS011;1685;53.104;8.228;2023-05-15T05:14:39;65.70;;;43.50;;
3343;SDS011;1685;53.104;8.228;2023-05-15T05:17:08;61.50;;;40.93;;
3343;SDS011;1685;53.104;8.228;2023-05-15T05:19:35;70.67;;;44.67;;
3343;SDS011;1685;53.104;8.228;2023-05-15T05:22:04;67.40;;;41.83;;
3343;SDS011;1685;53.104;8.228;2023-05-15T05:24:31;65.87;;;40.47;;
3343;SDS011;1685;53.104;8.228;2023-05-15T05:26:59;60.83;;;40.40;;
3343;SDS011;1685;53.104;8.228;2023-05-15T05:29:26;65.37;;;39.63;;
3343;SDS011;1685;53.104;8.228;2023-05-15T05:31:55;61.40;;;39.17;;
3343;SDS011;1685;53.104;8.228;2023-05-15T05:34:22;57.13;;;36.20;;
3343;SDS011;1685;53.104;8.228;2023-05-15T05:36:49;60.20;;;38.97;;
3343;SDS011;1685;53.104;8.228;2023-05-15T05:39:18;54.50;;;33.53;;
3343;SDS011;1685;53.104;8.228;2023-05-15T05:41:44;66.27;;;37.40;;
3343;SDS011;1685;53.104;8.228;2023-05-15T05:44:11;52.40;;;34.30;;
3343;SDS011;1685;53.104;8.228;2023-05-15T05:46:39;51.37;;;34.80;;
3343;SDS011;1685;53.104;8.228;2023-05-15T05:49:06;54.10;;;34.23;;
3343;SDS011;1685;53.104;8.228;2023-05-15T05:51:33;52.07;;;32.10;;
3343;SDS011;1685;53.104;8.228;2023-05-15T05:54:02;57.57;;;35.37;;
3343;SDS011;1685;53.104;8.228;2023-05-15T05:56:30;53.63;;;31.70;;
3343;SDS011;1685;53.104;8.228;2023-05-15T05:58:57;50.17;;;32.70;;
3343;SDS011;1685;53.104;8.228;2023-05-15T06:01:25;50.17;;;33.83;;
3343;SDS011;1685;53.104;8.228;2023-05-15T06:03:52;45.53;;;30.37;;
3343;SDS011;1685;53.104;8.228;2023-05-15T06:06:21;45.03;;;31.90;;
3343;SDS011;1685;53.104;8.228;2023-05-15T06:08:48;46.27;;;29.70;;
3343;SDS011;1685;53.104;8.228;2023-05-15T06:11:15;46.47;;;29.37;;
3343;SDS011;1685;53.104;8.228;2023-05-15T06:13:43;42.83;;;27.87;;
3343;SDS011;1685;53.104;8.228;2023-05-15T06:16:10;40.80;;;27.40;;
3343;SDS011;1685;53.104;8.228;2023-05-15T06:18:37;41.57;;;27.30;;
3343;SDS011;1685;53.104;8.228;2023-05-15T06:21:04;35.63;;;24.80;;
3343;SDS011;1685;53.104;8.228;2023-05-15T06:23:31;37.83;;;25.50;;
3343;SDS011;1685;53.104;8.228;2023-05-15T06:25:59;33.73;;;23.30;;
3343;SDS011;1685;53.104;8.228;2023-05-15T06:28:26;45.40;;;27.57;;
3343;SDS011;1685;53.104;8.228;2023-05-15T06:30:55;35.00;;;24.87;;
3343;SDS011;1685;53.104;8.228;2023-05-15T06:33:22;36.90;;;25.30;;
3343;SDS011;1685;53.104;8.228;2023-05-15T06:35:49;36.67;;;24.50;;
3343;SDS011;1685;53.104;8.228;2023-05-15T06:38:16;37.50;;;25.30;;
3343;SDS011;1685;53.104;8.228;2023-05-15T06:40:43;33.30;;;22.03;;
3343;SDS011;1685;53.104;8.228;2023-05-15T06:43:10;36.37;;;21.50;;
3343;SDS011;1685;53.104;8.228;2023-05-15T06:45:37;35.80;;;21.70;;
3343;SDS011;1685;53.104;8.228;2023-05-15T06:48:06;25.30;;;18.47;;
3343;SDS011;1685;53.104;8.228;2023-05-15T06:50:32;30.17;;;21.20;;
3343;SDS011;1685;53.104;8.228;2023-05-15T06:53:00;28.97;;;19.10;;
3343;SDS011;1685;53.104;8.228;2023-05-15T06:55:27;29.77;;;18.67;;
3343;SDS011;1685;53.104;8.228;2023-05-15T06:57:54;25.20;;;19.30;;
3343;SDS011;1685;53.104;8.228;2023-05-15T07:00:21;23.83;;;17.73;;
3343;SDS011;1685;53.104;8.228;2023-05-15T07:02:48;22.50;;;16.90;;
3343;SDS011;1685;53.104;8.228;2023-05-15T07:05:16;24.67;;;17.97;;
3343;SDS011;1685;53.104;8.228;2023-05-15T07:07:43;25.67;;;15.80;;
3343;SDS011;1685;53.104;8.228;2023-05-15T07:10:10;22.50;;;15.60;;
3343;SDS011;1685;53.104;8.228;2023-05-15T07:12:37;18.67;;;14.23;;
3343;SDS011;1685;53.104;8.228;2023-05-15T07:15:04;19.00;;;14.77;;
3343;SDS011;1685;53.104;8.228;2023-05-15T07:17:32;20.30;;;15.17;;
3343;SDS011;1685;53.104;8.228;2023-05-15T07:19:59;17.70;;;14.20;;
3343;SDS011;1685;53.104;8.228;2023-05-15T07:22:27;18.40;;;14.33;;
3343;SDS011;1685;53.104;8.228;2023-05-15T07:24:54;16.57;;;13.03;;
3343;SDS011;1685;53.104;8.228;2023-05-15T07:27:21;18.70;;;14.97;;
3343;SDS011;1685;53.104;8.228;2023-05-15T07:29:48;24.97;;;14.40;;
3343;SDS011;1685;53.104;8.228;2023-05-15T07:32:15;20.73;;;14.60;;
3343;SDS011;1685;53.104;8.228;2023-05-15T07:34:42;17.93;;;14.63;;
3343;SDS011;1685;53.104;8.228;2023-05-15T07:37:09;21.03;;;14.47;;
3343;SDS011;1685;53.104;8.228;2023-05-15T07:39:38;19.90;;;15.23;;
3343;SDS011;1685;53.104;8.228;2023-05-15T07:42:05;20.10;;;15.97;;
3343;SDS011;1685;53.104;8.228;2023-05-15T07:44:32;23.27;;;14.27;;
3343;SDS011;1685;53.104;8.228;2023-05-15T07:46:59;15.23;;;12.87;;
3343;SDS011;1685;53.104;8.228;2023-05-15T07:49:26;15.90;;;13.37;;
3343;SDS011;1685;53.104;8.228;2023-05-15T07:51:53;16.83;;;13.43;;
3343;SDS011;1685;53.104;8.228;2023-05-15T07:54:20;16.73;;;13.17;;
3343;SDS011;1685;53.104;8.228;2023-05-15T07:56:48;15.77;;;12.90;;
3343;SDS011;1685;53.104;8.228;2023-05-15T07:59:15;17.50;;;13.77;;
3343;SDS011;1685;53.104;8.228;2023-05-15T08:01:43;13.73;;;12.33;;
3343;SDS011;1685;53.104;8.228;2023-05-15T08:04:10;19.53;;;13.90;;
3343;SDS011;1685;53.104;8.228;2023-05-15T08:06:37;16.27;;;13.43;;
3343;SDS011;1685;53.104;8.228;2023-05-15T08:09:06;18.00;;;14.70;;
3343;SDS011;1685;53.104;8.228;2023-05-15T08:11:33;19.97;;;14.70;;
3343;SDS011;1685;53.104;8.228;2023-05-15T08:14:02;12.33;;;11.07;;
3343;SDS011;1685;53.104;8.228;2023-05-15T08:16:28;15.93;;;13.57;;
3343;SDS011;1685;53.104;8.228;2023-05-15T08:18:56;14.97;;;13.37;;
3343;SDS011;1685;53.104;8.228;2023-05-15T08:21:25;20.43;;;15.33;;
3343;SDS011;1685;53.104;8.228;2023-05-15T08:23:53;19.17;;;15.70;;
3343;SDS011;1685;53.104;8.228;2023-05-15T08:26:20;15.60;;;13.20;;
3343;SDS011;1685;53.104;8.228;2023-05-15T08:28:47;16.50;;;13.33;;
3343;SDS011;1685;53.104;8.228;2023-05-15T08:31:16;20.63;;;16.30;;
3343;SDS011;1685;53.104;8.228;2023-05-15T08:33:42;18.17;;;15.00;;
3343;SDS011;1685;53.104;8.228;2023-05-15T08:36:10;17.43;;;15.00;;
3343;SDS011;1685;53.104;8.228;2023-05-15T08:38:37;20.87;;;16.30;;
3343;SDS011;1685;53.104;8.228;2023-05-15T08:41:05;16.87;;;15.03;;
3343;SDS011;1685;53.104;8.228;2023-05-15T08:43:36;16.20;;;13.90;;
3343;SDS011;1685;53.104;8.228;2023-05-15T08:46:03;18.67;;;16.10;;
3343;SDS011;1685;53.104;8.228;2023-05-15T08:48:32;18.70;;;16.10;;
3343;SDS011;1685;53.104;8.228;2023-05-15T08:51:03;17.70;;;14.77;;
3343;SDS011;1685;53.104;8.228;2023-05-15T08:53:33;149.20;;;69.22;;
3343;SDS011;1685;53.104;8.228;2023-05-15T08:56:01;20.20;;;15.33;;
3343;SDS011;1685;53.104;8.228;2023-05-15T08:58:28;16.37;;;14.63;;
3343;SDS011;1685;53.104;8.228;2023-05-15T09:00:55;18.67;;;15.93;;
3343;SDS011;1685;53.104;8.228;2023-05-15T09:03:24;19.90;;;17.27;;
3343;SDS011;1685;53.104;8.228;2023-05-15T09:05:52;19.43;;;16.90;;
3343;SDS011;1685;53.104;8.228;2023-05-15T09:08:21;20.57;;;16.40;;
3343;SDS011;1685;53.104;8.228;2023-05-15T09:10:48;19.93;;;16.30;;
3343;SDS011;1685;53.104;8.228;2023-05-15T09:13:15;17.70;;;15.63;;
3343;SDS011;1685;53.104;8.228;2023-05-15T09:15:44;17.70;;;14.73;;
3343;SDS011;1685;53.104;8.228;2023-05-15T09:18:11;17.50;;;15.60;;
3343;SDS011;1685;53.104;8.228;2023-05-15T09:20:40;23.00;;;17.57;;
3343;SDS011;1685;53.104;8.228;2023-05-15T09:23:20;19.40;;;15.33;;
3343;SDS011;1685;53.104;8.228;2023-05-15T09:25:48;18.20;;;16.37;;
3343;SDS011;1685;53.104;8.228;2023-05-15T09:28:23;15.90;;;14.03;;
3343;SDS011;1685;53.104;8.228;2023-05-15T09:30:55;17.83;;;14.80;;
3343;SDS011;1685;53.104;8.228;2023-05-15T09:33:26;20.10;;;15.27;;
3343;SDS011;1685;53.104;8.228;2023-05-15T09:35:54;18.50;;;15.80;;
3343;SDS011;1685;53.104;8.228;2023-05-15T09:38:23;17.53;;;15.50;;
3343;SDS011;1685;53.104;8.228;2023-05-15T09:40:49;28.13;;;16.60;;
3343;SDS011;1685;53.104;8.228;2023-05-15T09:43:27;17.33;;;15.50;;
3343;SDS011;1685;53.104;8.228;2023-05-15T09:45:54;24.03;;;16.90;;
3343;SDS011;1685;53.104;8.228;2023-05-15T09:48:22;15.53;;;13.90;;
3343;SDS011;1685;53.104;8.228;2023-05-15T09:50:49;19.27;;;16.77;;
3343;SDS011;1685;53.104;8.228;2023-05-15T09:53:16;20.00;;;15.50;;
3343;SDS011;1685;53.104;8.228;2023-05-15T09:55:44;17.37;;;15.23;;
3343;SDS011;1685;53.104;8.228;2023-05-15T09:58:14;18.57;;;16.30;;
3343;SDS011;1685;53.104;8.228;2023-05-15T10:00:42;20.03;;;14.77;;
3343;SDS011;1685;53.104;8.228;2023-05-15T10:03:09;16.47;;;14.77;;
3343;SDS011;1685;53.104;8.228;2023-05-15T10:05:37;18.43;;;15.87;;
3343;SDS011;1685;53.104;8.228;2023-05-15T10:08:04;23.33;;;13.83;;
3343;SDS011;1685;53.104;8.228;2023-05-15T10:10:31;18.87;;;14.40;;
3343;SDS011;1685;53.104;8.228;2023-05-15T10:13:00;17.10;;;14.90;;
3343;SDS011;1685;53.104;8.228;2023-05-15T10:15:30;18.63;;;14.30;;
3343;SDS011;1685;53.104;8.228;2023-05-15T10:17:57;22.07;;;14.33;;
3343;SDS011;1685;53.104;8.228;2023-05-15T10:20:25;15.83;;;13.07;;
3343;SDS011;1685;53.104;8.228;2023-05-15T10:22:52;15.50;;;12.77;;
3343;SDS011;1685;53.104;8.228;2023-05-15T10:25:22;21.67;;;13.70;;
3343;SDS011;1685;53.104;8.228;2023-05-15T10:27:59;15.60;;;13.33;;
3343;SDS011;1685;53.104;8.228;2023-05-15T10:30:27;21.23;;;13.57;;
3343;SDS011;1685;53.104;8.228;2023-05-15T10:32:54;16.10;;;14.00;;
3343;SDS011;1685;53.104;8.228;2023-05-15T10:35:22;14.90;;;13.30;;
3343;SDS011;1685;53.104;8.228;2023-05-15T10:37:49;18.50;;;15.00;;
3343;SDS011;1685;53.104;8.228;2023-05-15T10:40:16;16.37;;;13.90;;
3343;SDS011;1685;53.104;8.228;2023-05-15T10:42:44;17.27;;;15.03;;
3343;SDS011;1685;53.104;8.228;2023-05-15T10:45:12;16.43;;;13.43;;
3343;SDS011;1685;53.104;8.228;2023-05-15T10:47:40;14.43;;;12.87;;
3343;SDS011;1685;53.104;8.228;2023-05-15T10:50:08;16.27;;;14.30;;
3343;SDS011;1685;53.104;8.228;2023-05-15T10:52:36;13.90;;;12.50;;
3343;SDS011;1685;53.104;8.228;2023-05-15T10:55:07;17.80;;;14.80;;
3343;SDS011;1685;53.104;8.228;2023-05-15T10:57:38;20.43;;;14.57;;
3343;SDS011;1685;53.104;8.228;2023-05-15T11:00:17;22.43;;;14.87;;
3343;SDS011;1685;53.104;8.228;2023-05-15T11:02:50;18.63;;;14.40;;
3343;SDS011;1685;53.104;8.228;2023-05-15T11:05:19;18.30;;;13.73;;
3343;SDS011;1685;53.104;8.228;2023-05-15T11:10:46;26.10;;;14.87;;
3343;SDS011;1685;53.104;8.228;2023-05-15T11:13:13;18.23;;;14.03;;
3343;SDS011;1685;53.104;8.228;2023-05-15T11:15:42;17.93;;;14.27;;
3343;SDS011;1685;53.104;8.228;2023-05-15T11:18:09;18.27;;;14.77;;
3343;SDS011;1685;53.104;8.228;2023-05-15T11:20:37;20.63;;;15.10;;
3343;SDS011;1685;53.104;8.228;2023-05-15T11:23:05;18.43;;;15.73;;
3343;SDS011;1685;53.104;8.228;2023-05-15T11:25:33;19.80;;;15.47;;
3343;SDS011;1685;53.104;8.228;2023-05-15T11:28:01;26.00;;;14.20;;
3343;SDS011;1685;53.104;8.228;2023-05-15T11:30:35;16.50;;;14.33;;
3343;SDS011;1685;53.104;8.228;2023-05-15T11:33:05;16.83;;;13.07;;
3343;SDS011;1685;53.104;8.228;2023-05-15T11:35:36;21.27;;;15.60;;
3343;SDS011;1685;53.104;8.228;2023-05-15T11:38:10;22.53;;;17.10;;
3343;SDS011;1685;53.104;8.228;2023-05-15T11:40:44;23.27;;;15.93;;
3343;SDS011;1685;53.104;8.228;2023-05-15T11:43:16;18.80;;;15.10;;
3343;SDS011;1685;53.104;8.228;2023-05-15T11:45:45;22.70;;;15.60;;
3343;SDS011;1685;53.104;8.228;2023-05-15T11:48:15;23.23;;;15.90;;
3343;SDS011;1685;53.104;8.228;2023-05-15T11:50:42;19.20;;;15.23;;
3343;SDS011;1685;53.104;8.228;2023-05-15T11:53:10;18.60;;;14.10;;
3343;SDS011;1685;53.104;8.228;2023-05-15T11:55:38;20.27;;;13.50;;
3343;SDS011;1685;53.104;8.228;2023-05-15T11:58:09;17.93;;;13.90;;
3343;SDS011;1685;53.104;8.228;2023-05-15T12:00:38;12.70;;;11.37;;
3343;SDS011;1685;53.104;8.228;2023-05-15T12:03:05;19.17;;;14.30;;
3343;SDS011;1685;53.104;8.228;2023-05-15T12:05:40;19.23;;;15.20;;
3343;SDS011;1685;53.104;8.228;2023-05-15T12:08:08;20.10;;;15.60;;
3343;SDS011;1685;53.104;8.228;2023-05-15T12:10:38;21.43;;;13.33;;
3343;SDS011;1685;53.104;8.228;2023-05-15T12:13:06;16.37;;;12.40;;
3343;SDS011;1685;53.104;8.228;2023-05-15T12:15:35;18.57;;;14.10;;
3343;SDS011;1685;53.104;8.228;2023-05-15T12:18:04;14.77;;;12.30;;
3343;SDS011;1685;53.104;8.228;2023-05-15T12:20:32;14.63;;;12.20;;
3343;SDS011;1685;53.104;8.228;2023-05-15T12:23:01;15.23;;;13.63;;
3343;SDS011;1685;53.104;8.228;2023-05-15T12:25:29;19.23;;;13.10;;
3343;SDS011;1685;53.104;8.228;2023-05-15T12:27:58;19.00;;;14.30;;
3343;SDS011;1685;53.104;8.228;2023-05-15T12:30:26;17.10;;;13.50;;
3343;SDS011;1685;53.104;8.228;2023-05-15T12:32:58;16.40;;;13.10;;
3343;SDS011;1685;53.104;8.228;2023-05-15T12:35:26;19.57;;;16.13;;
3343;SDS011;1685;53.104;8.228;2023-05-15T12:37:53;15.10;;;12.70;;
3343;SDS011;1685;53.104;8.228;2023-05-15T12:40:21;17.93;;;14.33;;
3343;SDS011;1685;53.104;8.228;2023-05-15T12:42:50;14.40;;;12.20;;
3343;SDS011;1685;53.104;8.228;2023-05-15T12:45:19;12.93;;;11.63;;
3343;SDS011;1685;53.104;8.228;2023-05-15T12:47:48;11.23;;;10.20;;
3343;SDS011;1685;53.104;8.228;2023-05-15T12:50:16;13.67;;;10.60;;
3343;SDS011;1685;53.104;8.228;2023-05-15T12:52:49;13.67;;;9.77;;
3343;SDS011;1685;53.104;8.228;2023-05-15T12:55:17;14.80;;;10.70;;
3343;SDS011;1685;53.104;8.228;2023-05-15T12:57:45;9.77;;;8.77;;
3343;SDS011;1685;53.104;8.228;2023-05-15T13:00:13;17.23;;;9.47;;
3343;SDS011;1685;53.104;8.228;2023-05-15T13:02:41;15.90;;;8.87;;
3343;SDS011;1685;53.104;8.228;2023-05-15T13:05:09;7.73;;;6.83;;
3343;SDS011;1685;53.104;8.228;2023-05-15T13:07:37;10.10;;;6.50;;
3343;SDS011;1685;53.104;8.228;2023-05-15T13:10:04;6.93;;;6.23;;
3343;SDS011;1685;53.104;8.228;2023-05-15T13:12:35;8.53;;;6.80;;
3343;SDS011;1685;53.104;8.228;2023-05-15T13:15:04;11.40;;;5.60;;
3343;SDS011;1685;53.104;8.228;2023-05-15T13:17:32;10.93;;;5.80;;
3343;SDS011;1685;53.104;8.228;2023-05-15T13:20:00;11.73;;;6.93;;
3343;SDS011;1685;53.104;8.228;2023-05-15T13:22:29;12.43;;;5.67;;
3343;SDS011;1685;53.104;8.228;2023-05-15T13:24:56;6.83;;;5.93;;
3343;SDS011;1685;53.104;8.228;2023-05-15T13:27:24;6.73;;;5.70;;
3343;SDS011;1685;53.104;8.228;2023-05-15T13:29:51;9.70;;;5.47;;
3343;SDS011;1685;53.104;8.228;2023-05-15T13:32:19;8.03;;;5.40;;
3343;SDS011;1685;53.104;8.228;2023-05-15T13:34:47;5.80;;;4.43;;
3343;SDS011;1685;53.104;8.228;2023-05-15T13:37:14;6.10;;;4.53;;
3343;SDS011;1685;53.104;8.228;2023-05-15T13:39:41;8.40;;;6.00;;
3343;SDS011;1685;53.104;8.228;2023-05-15T13:42:09;6.83;;;4.57;;
3343;SDS011;1685;53.104;8.228;2023-05-15T13:44:36;7.63;;;5.90;;
3343;SDS011;1685;53.104;8.228;2023-05-15T13:47:03;5.33;;;4.83;;
3343;SDS011;1685;53.104;8.228;2023-05-15T13:49:32;5.53;;;4.73;;
3343;SDS011;1685;53.104;8.228;2023-05-15T13:51:58;5.90;;;4.43;;
3343;SDS011;1685;53.104;8.228;2023-05-15T13:54:26;5.97;;;5.37;;
3343;SDS011;1685;53.104;8.228;2023-05-15T13:56:53;10.00;;;5.27;;
3343;SDS011;1685;53.104;8.228;2023-05-15T13:59:20;6.77;;;4.60;;
3343;SDS011;1685;53.104;8.228;2023-05-15T14:01:47;6.47;;;5.20;;
3343;SDS011;1685;53.104;8.228;2023-05-15T14:04:14;10.93;;;5.33;;
3343;SDS011;1685;53.104;8.228;2023-05-15T14:06:42;6.10;;;5.23;;
3343;SDS011;1685;53.104;8.228;2023-05-15T14:09:10;7.13;;;5.20;;
3343;SDS011;1685;53.104;8.228;2023-05-15T14:11:37;11.70;;;5.27;;
3343;SDS011;1685;53.104;8.228;2023-05-15T14:14:04;6.10;;;4.90;;
3343;SDS011;1685;53.104;8.228;2023-05-15T14:16:31;5.77;;;5.17;;
3343;SDS011;1685;53.104;8.228;2023-05-15T14:18:58;7.70;;;4.97;;
3343;SDS011;1685;53.104;8.228;2023-05-15T14:21:25;7.93;;;4.60;;
3343;SDS011;1685;53.104;8.228;2023-05-15T14:23:53;5.27;;;4.77;;
3343;SDS011;1685;53.104;8.228;2023-05-15T14:26:20;5.23;;;4.73;;
3343;SDS011;1685;53.104;8.228;2023-05-15T14:28:47;5.67;;;5.17;;
3343;SDS011;1685;53.104;8.228;2023-05-15T14:31:14;5.77;;;5.27;;
3343;SDS011;1685;53.104;8.228;2023-05-15T14:33:41;7.53;;;6.50;;
3343;SDS011;1685;53.104;8.228;2023-05-15T14:36:09;7.53;;;5.67;;
3343;SDS011;1685;53.104;8.228;2023-05-15T14:38:36;9.80;;;5.60;;
3343;SDS011;1685;53.104;8.228;2023-05-15T14:41:04;6.00;;;5.40;;
3343;SDS011;1685;53.104;8.228;2023-05-15T14:43:31;11.03;;;5.33;;
3343;SDS011;1685;53.104;8.228;2023-05-15T14:45:58;5.90;;;5.30;;
3343;SDS011;1685;53.104;8.228;2023-05-15T14:48:25;10.43;;;5.00;;
3343;SDS011;1685;53.104;8.228;2023-05-15T14:50:54;9.03;;;5.37;;
3343;SDS011;1685;53.104;8.228;2023-05-15T14:53:21;7.80;;;4.50;;
3343;SDS011;1685;53.104;8.228;2023-05-15T14:55:48;6.10;;;5.20;;
3343;SDS011;1685;53.104;8.228;2023-05-15T14:58:16;7.13;;;5.87;;